createdAt,value
2024-01-17T00:00:25.158Z,2.30
2024-01-17T00:02:52.221Z,2.30
2024-01-17T00:05:19.374Z,2.30
2024-01-17T00:07:46.418Z,2.30
2024-01-17T00:10:13.566Z,2.30
2024-01-17T00:12:40.578Z,2.30
2024-01-17T00:15:08.693Z,2.30
2024-01-17T00:17:35.840Z,2.20
2024-01-17T00:20:02.985Z,2.20
2024-01-17T00:22:29.963Z,2.20
2024-01-17T00:24:57.238Z,2.20
2024-01-17T00:27:26.543Z,2.20
2024-01-17T00:29:59.004Z,2.20
2024-01-17T00:32:26.655Z,2.20
2024-01-17T00:34:54.164Z,2.10
2024-01-17T00:37:21.320Z,2.10
2024-01-17T00:39:48.767Z,2.10
2024-01-17T00:42:16.052Z,2.00
2024-01-17T00:44:43.414Z,2.00
2024-01-17T00:47:10.542Z,2.00
2024-01-17T00:49:41.327Z,2.00
2024-01-17T00:52:09.720Z,1.90
2024-01-17T00:54:36.990Z,1.90
2024-01-17T00:57:04.972Z,1.90
2024-01-17T00:59:32.643Z,1.90
2024-01-17T01:02:00.619Z,1.90
2024-01-17T01:04:27.797Z,1.90
2024-01-17T01:06:54.864Z,1.90
2024-01-17T01:09:21.937Z,1.90
2024-01-17T01:11:49.098Z,1.90
2024-01-17T01:14:16.110Z,1.90
2024-01-17T01:16:44.990Z,1.90
2024-01-17T01:19:12.176Z,1.90
2024-01-17T01:21:39.362Z,1.90
2024-01-17T01:24:06.689Z,1.90
2024-01-17T01:26:34.010Z,1.90
2024-01-17T01:29:01.121Z,1.90
2024-01-17T01:31:28.276Z,1.90
2024-01-17T01:33:55.695Z,1.90
2024-01-17T01:36:23.971Z,1.90
2024-01-17T01:38:51.725Z,1.90
2024-01-17T01:41:18.924Z,1.80
2024-01-17T01:43:46.046Z,1.80
2024-01-17T01:46:15.704Z,1.80
2024-01-17T01:48:47.148Z,1.80
2024-01-17T01:51:16.466Z,1.80
2024-01-17T01:53:45.703Z,1.80
2024-01-17T01:56:14.709Z,1.70
2024-01-17T01:58:44.721Z,1.70
2024-01-17T02:01:13.130Z,1.70
2024-01-17T02:03:41.718Z,1.70
2024-01-17T02:06:08.967Z,1.60
2024-01-17T02:08:36.442Z,1.60
2024-01-17T02:11:05.750Z,1.60
2024-01-17T02:13:34.572Z,1.60
2024-01-17T02:16:02.075Z,1.60
2024-01-17T02:18:29.273Z,1.60
2024-01-17T02:20:56.333Z,1.50
2024-01-17T02:23:27.990Z,1.50
2024-01-17T02:25:57.183Z,1.50
2024-01-17T02:28:30.751Z,1.50
2024-01-17T02:30:59.043Z,1.50
2024-01-17T02:33:26.831Z,1.40
2024-01-17T02:35:54.207Z,1.40
2024-01-17T02:38:21.366Z,1.40
2024-01-17T02:40:48.411Z,1.40
2024-01-17T02:43:16.935Z,1.40
2024-01-17T02:45:44.008Z,1.40
2024-01-17T02:48:11.128Z,1.40
2024-01-17T02:50:39.721Z,1.40
2024-01-17T02:53:07.917Z,1.40
2024-01-17T02:55:35.042Z,1.30
2024-01-17T02:58:02.218Z,1.30
2024-01-17T03:00:29.708Z,1.30
2024-01-17T03:02:56.891Z,1.30
2024-01-17T03:05:24.039Z,1.30
2024-01-17T03:07:51.107Z,1.30
2024-01-17T03:10:18.147Z,1.20
2024-01-17T03:12:45.232Z,1.20
2024-01-17T03:15:12.936Z,1.20
2024-01-17T03:17:40.359Z,1.10
2024-01-17T03:20:12.766Z,1.10
2024-01-17T03:22:43.290Z,1.10
2024-01-17T03:25:11.649Z,1.00
2024-01-17T03:27:38.654Z,1.00
2024-01-17T03:30:08.634Z,1.00
2024-01-17T03:32:36.100Z,0.90
2024-01-17T03:35:03.797Z,0.90
2024-01-17T03:37:30.859Z,0.90
2024-01-17T03:39:58.438Z,0.80
2024-01-17T03:42:25.538Z,0.90
2024-01-17T03:44:52.635Z,0.80
2024-01-17T03:47:19.757Z,0.80
2024-01-17T03:49:46.843Z,0.80
2024-01-17T03:52:14.069Z,0.80
2024-01-17T03:54:41.318Z,0.80
2024-01-17T03:57:10.007Z,0.80
2024-01-17T03:59:37.359Z,0.70
2024-01-17T04:02:05.954Z,0.70
2024-01-17T04:04:32.968Z,0.70
2024-01-17T04:07:00.012Z,0.70
2024-01-17T04:09:27.214Z,0.70
2024-01-17T04:11:54.265Z,0.70
2024-01-17T04:14:21.348Z,0.70
2024-01-17T04:16:48.346Z,0.70
2024-01-17T04:19:15.425Z,0.60
2024-01-17T04:21:42.499Z,0.60
2024-01-17T04:24:09.795Z,0.60
2024-01-17T04:26:37.018Z,0.60
2024-01-17T04:29:04.579Z,0.50
2024-01-17T04:31:33.005Z,0.50
2024-01-17T04:34:04.741Z,0.50
2024-01-17T04:36:32.592Z,0.40
2024-01-17T04:39:01.909Z,0.40
2024-01-17T04:41:29.120Z,0.40
2024-01-17T04:43:57.032Z,0.30
2024-01-17T04:46:24.338Z,0.30
2024-01-17T04:48:51.876Z,0.30
2024-01-17T04:51:23.237Z,0.30
2024-01-17T04:53:50.438Z,0.30
2024-01-17T04:56:18.200Z,0.30
2024-01-17T04:58:45.277Z,0.30
2024-01-17T05:01:12.574Z,0.30
2024-01-17T05:03:44.136Z,0.30
2024-01-17T05:06:11.371Z,0.30
2024-01-17T05:08:38.618Z,0.30
2024-01-17T05:11:05.637Z,0.30
2024-01-17T05:13:32.650Z,0.30
2024-01-17T05:15:59.879Z,0.30
2024-01-17T05:18:26.963Z,0.30
2024-01-17T05:20:54.029Z,0.40
2024-01-17T05:23:21.369Z,0.40
2024-01-17T05:25:48.420Z,0.40
2024-01-17T05:28:15.428Z,0.40
2024-01-17T05:30:42.521Z,0.40
2024-01-17T05:33:10.112Z,0.40
2024-01-17T05:35:37.318Z,0.40
2024-01-17T05:38:04.561Z,0.50
2024-01-17T05:40:31.769Z,0.50
2024-01-17T05:42:59.491Z,0.50
2024-01-17T05:45:28.291Z,0.50
2024-01-17T05:47:55.770Z,0.50
2024-01-17T05:50:22.939Z,0.50
2024-01-17T05:52:50.389Z,0.50
2024-01-17T05:55:18.641Z,0.50
2024-01-17T05:57:45.923Z,0.50
2024-01-17T06:00:14.432Z,0.50
2024-01-17T06:02:43.423Z,0.50
2024-01-17T06:05:12.056Z,0.40
2024-01-17T06:07:42.427Z,0.40
2024-01-17T06:10:14.981Z,0.40
2024-01-17T06:12:44.804Z,0.40
2024-01-17T06:15:13.364Z,0.30
2024-01-17T06:17:40.713Z,0.30
2024-01-17T06:20:11.436Z,0.30
2024-01-17T06:22:38.918Z,0.30
2024-01-17T06:25:07.648Z,0.30
2024-01-17T06:27:35.367Z,0.30
2024-01-17T06:30:03.036Z,0.30
2024-01-17T06:32:30.317Z,0.20
2024-01-17T06:34:57.381Z,0.20
2024-01-17T06:37:24.450Z,0.20
2024-01-17T06:39:51.433Z,0.20
2024-01-17T06:42:18.722Z,0.20
2024-01-17T06:44:46.706Z,0.10
2024-01-17T06:47:13.794Z,0.10
2024-01-17T06:49:42.567Z,0.10
2024-01-17T06:52:10.740Z,0.10
2024-01-17T06:54:37.733Z,0.10
2024-01-17T06:57:05.620Z,0.10
2024-01-17T06:59:32.696Z,0.00
2024-01-17T07:01:59.917Z,0.10
2024-01-17T07:04:27.382Z,0.00
2024-01-17T07:06:54.563Z,0.00
2024-01-17T07:09:21.751Z,0.00
2024-01-17T07:11:48.931Z,0.00
2024-01-17T07:14:15.922Z,0.00
2024-01-17T07:16:43.262Z,0.00
2024-01-17T07:19:10.377Z,-0.10
2024-01-17T07:21:42.022Z,0.00
2024-01-17T07:24:09.573Z,0.00
2024-01-17T07:26:36.833Z,0.00
2024-01-17T07:29:04.052Z,0.00
2024-01-17T07:31:31.230Z,0.00
2024-01-17T07:33:58.445Z,0.10
2024-01-17T07:36:25.687Z,0.10
2024-01-17T07:38:53.035Z,0.10
2024-01-17T07:41:20.214Z,0.20
2024-01-17T07:43:47.830Z,0.20
2024-01-17T07:46:15.786Z,0.30
2024-01-17T07:48:45.345Z,0.30
2024-01-17T07:51:13.255Z,0.40
2024-01-17T07:53:40.520Z,0.50
2024-01-17T07:56:07.817Z,0.50
2024-01-17T07:58:35.945Z,0.60
2024-01-17T08:01:03.968Z,0.70
2024-01-17T08:03:31.815Z,0.80
2024-01-17T08:05:59.083Z,0.80
2024-01-17T08:08:26.129Z,0.90
2024-01-17T08:10:53.520Z,1.00
2024-01-17T08:13:20.778Z,1.10
2024-01-17T08:15:48.049Z,1.20
2024-01-17T08:18:15.362Z,1.40
2024-01-17T08:20:42.730Z,1.50
2024-01-17T08:23:09.949Z,1.60
2024-01-17T08:25:38.172Z,1.60
2024-01-17T08:28:05.372Z,1.70
2024-01-17T08:30:32.674Z,1.80
2024-01-17T08:32:59.980Z,2.00
2024-01-17T08:35:27.682Z,2.10
2024-01-17T08:37:54.833Z,2.30
2024-01-17T08:40:22.719Z,2.40
2024-01-17T08:42:49.823Z,2.70
2024-01-17T08:45:19.416Z,2.90
2024-01-17T08:47:46.847Z,3.20
2024-01-17T08:50:14.702Z,3.50
2024-01-17T08:52:41.915Z,3.70
2024-01-17T08:55:10.709Z,4.00
2024-01-17T08:57:39.529Z,4.30
2024-01-17T09:00:07.987Z,4.50
2024-01-17T09:02:36.249Z,4.70
2024-01-17T09:05:04.877Z,4.90
2024-01-17T09:07:34.361Z,5.00
2024-01-17T09:10:02.373Z,5.10
2024-01-17T09:12:29.328Z,5.20
2024-01-17T09:14:56.898Z,5.30
2024-01-17T09:17:25.394Z,5.50
2024-01-17T09:19:52.921Z,5.60
2024-01-17T09:22:20.071Z,5.80
2024-01-17T09:24:47.305Z,6.00
2024-01-17T09:27:14.669Z,6.20
2024-01-17T09:32:18.021Z,6.50
2024-01-17T09:34:49.307Z,6.70
2024-01-17T09:37:17.484Z,6.80
2024-01-17T09:39:45.061Z,7.00
2024-01-17T09:42:15.479Z,7.10
2024-01-17T09:44:46.290Z,7.20
2024-01-17T09:47:19.565Z,7.20
2024-01-17T09:49:47.590Z,7.20
2024-01-17T09:52:19.123Z,7.20
2024-01-17T09:54:47.822Z,7.30
2024-01-17T09:57:40.351Z,7.30
2024-01-17T10:00:09.048Z,7.30
2024-01-17T10:02:41.852Z,7.30
2024-01-17T10:05:10.935Z,7.30
2024-01-17T10:07:39.075Z,7.30
2024-01-17T10:10:06.944Z,7.40
2024-01-17T10:12:36.480Z,7.40
2024-01-17T10:15:08.287Z,7.50
2024-01-17T10:17:37.209Z,7.60
2024-01-17T10:20:09.481Z,7.60
2024-01-17T10:22:37.081Z,7.70
2024-01-17T10:25:06.562Z,7.80
2024-01-17T10:27:35.233Z,7.90
2024-01-17T10:30:06.002Z,8.00
2024-01-17T10:32:34.669Z,8.00
2024-01-17T10:35:06.018Z,8.00
2024-01-17T10:37:33.752Z,8.00
2024-01-17T10:40:11.006Z,8.00
2024-01-17T10:42:39.639Z,7.90
2024-01-17T10:45:07.345Z,7.90
2024-01-17T10:47:35.392Z,7.70
2024-01-17T10:50:03.456Z,7.60
2024-01-17T10:52:38.184Z,7.40
2024-01-17T10:55:06.382Z,7.30
2024-01-17T10:57:42.015Z,7.00
2024-01-17T11:00:16.756Z,6.80
2024-01-17T11:02:55.197Z,6.60
2024-01-17T11:05:27.156Z,6.40
2024-01-17T11:07:56.102Z,6.20
2024-01-17T11:10:25.972Z,6.00
2024-01-17T11:12:54.400Z,5.80
2024-01-17T11:15:23.832Z,5.70
2024-01-17T11:17:55.094Z,5.50
2024-01-17T11:20:28.958Z,5.40
2024-01-17T11:23:02.937Z,5.30
2024-01-17T11:25:51.939Z,5.20
2024-01-17T11:28:24.424Z,5.10
2024-01-17T11:31:25.315Z,5.00
2024-01-17T11:33:53.129Z,5.00
2024-01-17T11:36:47.339Z,4.90
2024-01-17T11:39:19.503Z,4.90
2024-01-17T11:41:50.029Z,4.90
2024-01-17T11:44:19.662Z,4.90
2024-01-17T11:46:52.477Z,4.90
2024-01-17T11:49:41.001Z,4.90
2024-01-17T11:52:32.657Z,4.80
2024-01-17T11:55:02.036Z,4.80
2024-01-17T11:57:33.954Z,4.80
2024-01-17T12:00:07.202Z,4.80
2024-01-17T12:02:40.342Z,4.80
2024-01-17T12:05:12.266Z,4.80
2024-01-17T12:07:41.118Z,4.80
2024-01-17T12:10:13.839Z,4.80
2024-01-17T12:12:44.388Z,4.70
2024-01-17T12:15:13.257Z,4.70
2024-01-17T12:17:42.395Z,4.70
2024-01-17T12:20:10.066Z,4.70
2024-01-17T12:22:37.581Z,4.70
2024-01-17T12:25:05.252Z,4.70
2024-01-17T12:27:34.379Z,4.70
2024-01-17T12:30:06.815Z,4.70
2024-01-17T12:32:35.242Z,4.70
2024-01-17T12:35:05.956Z,4.70
2024-01-17T12:37:33.048Z,4.80
2024-01-17T12:40:00.251Z,4.70
2024-01-17T12:42:27.469Z,4.70
2024-01-17T12:44:54.972Z,4.80
2024-01-17T12:47:22.273Z,4.70
2024-01-17T12:49:49.431Z,4.70
2024-01-17T12:52:19.934Z,4.70
2024-01-17T12:54:47.961Z,4.80
2024-01-17T12:57:15.374Z,4.80
2024-01-17T12:59:43.021Z,4.80
2024-01-17T13:02:16.050Z,4.90
2024-01-17T13:05:03.805Z,4.90
2024-01-17T13:07:31.610Z,4.90
2024-01-17T13:10:01.154Z,5.00
2024-01-17T13:12:30.634Z,5.00
2024-01-17T13:14:58.045Z,5.00
2024-01-17T13:17:26.395Z,5.00
2024-01-17T13:19:58.102Z,5.00
2024-01-17T13:22:25.239Z,5.00
2024-01-17T13:24:57.316Z,5.00
2024-01-17T13:27:25.648Z,5.00
2024-01-17T13:29:53.220Z,5.00
2024-01-17T13:32:20.418Z,5.00
2024-01-17T13:34:48.053Z,5.10
2024-01-17T13:37:15.105Z,5.10
2024-01-17T13:39:42.511Z,5.10
2024-01-17T13:42:09.698Z,5.10
2024-01-17T13:44:36.910Z,5.10
2024-01-17T13:47:04.465Z,5.10
2024-01-17T13:49:31.579Z,5.10
2024-01-17T13:51:58.655Z,5.00
2024-01-17T13:54:26.090Z,5.00
2024-01-17T13:56:53.213Z,5.00
2024-01-17T13:59:20.363Z,5.00
2024-01-17T14:01:48.288Z,4.90
2024-01-17T14:04:15.389Z,4.90
2024-01-17T14:06:42.668Z,4.90
2024-01-17T14:09:09.956Z,4.90
2024-01-17T14:11:40.346Z,4.80
2024-01-17T14:14:13.015Z,4.80
2024-01-17T14:16:42.273Z,4.80
2024-01-17T14:19:10.542Z,4.70
2024-01-17T14:21:41.505Z,4.70
2024-01-17T14:24:08.681Z,4.70
2024-01-17T14:26:35.939Z,4.60
2024-01-17T14:29:03.222Z,4.60
2024-01-17T14:31:30.327Z,4.60
2024-01-17T14:33:58.104Z,4.60
2024-01-17T14:36:25.513Z,4.60
2024-01-17T14:38:52.850Z,4.50
2024-01-17T14:41:23.999Z,4.50
2024-01-17T14:43:54.656Z,4.40
2024-01-17T14:46:22.190Z,4.40
2024-01-17T14:48:49.357Z,4.40
2024-01-17T14:51:16.774Z,4.40
2024-01-17T14:53:43.972Z,4.40
2024-01-17T14:56:11.095Z,4.40
2024-01-17T14:58:38.155Z,4.30
2024-01-17T15:01:06.220Z,4.30
2024-01-17T15:03:33.390Z,4.30
2024-01-17T15:06:01.009Z,4.30
2024-01-17T15:08:28.195Z,4.30
2024-01-17T15:10:55.250Z,4.20
2024-01-17T15:13:24.829Z,4.20
2024-01-17T15:15:53.641Z,4.20
2024-01-17T15:18:20.967Z,4.20
2024-01-17T15:20:48.299Z,4.20
2024-01-17T15:23:15.267Z,4.20
2024-01-17T15:25:42.450Z,4.10
2024-01-17T15:28:09.547Z,4.10
2024-01-17T15:30:38.385Z,4.10
2024-01-17T15:33:06.983Z,4.10
2024-01-17T15:35:34.866Z,4.10
2024-01-17T15:38:01.955Z,4.00
2024-01-17T15:40:29.203Z,4.00
2024-01-17T15:42:56.329Z,4.00
2024-01-17T15:45:23.513Z,4.00
2024-01-17T15:47:50.882Z,4.00
2024-01-17T15:50:20.279Z,4.00
2024-01-17T15:52:47.513Z,3.90
2024-01-17T15:55:14.767Z,3.90
2024-01-17T15:57:41.897Z,3.90
2024-01-17T16:00:15.025Z,3.90
2024-01-17T16:02:42.367Z,3.90
2024-01-17T16:05:12.217Z,3.90
2024-01-17T16:07:39.607Z,3.90
2024-01-17T16:10:08.030Z,3.90
2024-01-17T16:12:35.392Z,3.90
2024-01-17T16:15:02.626Z,3.80
2024-01-17T16:17:31.335Z,3.90
2024-01-17T16:19:58.710Z,3.80
2024-01-17T16:22:25.827Z,3.80
2024-01-17T16:24:53.372Z,3.80
2024-01-17T16:27:21.769Z,3.80
2024-01-17T16:29:50.304Z,3.80
2024-01-17T16:32:19.705Z,3.80
2024-01-17T16:34:46.825Z,3.80
2024-01-17T16:37:14.092Z,3.80
2024-01-17T16:39:41.643Z,3.80
2024-01-17T16:42:08.672Z,3.80
2024-01-17T16:44:35.681Z,3.80
2024-01-17T16:47:02.778Z,3.80
2024-01-17T16:49:30.802Z,3.80
2024-01-17T16:51:58.368Z,3.80
2024-01-17T16:54:25.430Z,3.80
2024-01-17T16:56:52.555Z,3.80
2024-01-17T16:59:19.680Z,3.80
2024-01-17T17:01:49.957Z,3.80
2024-01-17T17:04:20.348Z,3.80
2024-01-17T17:06:48.001Z,3.80
2024-01-17T17:09:15.099Z,3.80
2024-01-17T17:11:42.084Z,3.80
2024-01-17T17:14:09.093Z,3.80
2024-01-17T17:16:37.147Z,3.80
2024-01-17T17:19:04.387Z,3.80
2024-01-17T17:21:31.921Z,3.80
2024-01-17T17:23:59.055Z,3.80
2024-01-17T17:26:26.363Z,3.70
2024-01-17T17:28:54.288Z,3.70
2024-01-17T17:31:22.509Z,3.70
2024-01-17T17:33:49.749Z,3.70
2024-01-17T17:36:17.030Z,3.70
2024-01-17T17:38:44.175Z,3.70
2024-01-17T17:41:11.408Z,3.70
2024-01-17T17:43:38.546Z,3.70
2024-01-17T17:46:05.799Z,3.70
2024-01-17T17:48:33.677Z,3.70
2024-01-17T17:51:15.360Z,3.70
2024-01-17T17:53:42.757Z,3.70
2024-01-17T17:56:10.086Z,3.70
2024-01-17T17:58:37.914Z,3.70
2024-01-17T18:01:05.349Z,3.70
2024-01-17T18:03:32.483Z,3.70
2024-01-17T18:05:59.708Z,3.70
2024-01-17T18:08:26.982Z,3.70
2024-01-17T18:10:54.009Z,3.70
2024-01-17T18:13:20.996Z,3.70
2024-01-17T18:15:48.096Z,3.80
2024-01-17T18:18:15.872Z,3.80
2024-01-17T18:20:45.498Z,3.80
2024-01-17T18:23:12.849Z,3.80
2024-01-17T18:25:39.857Z,3.80
2024-01-17T18:28:07.281Z,3.90
2024-01-17T18:30:34.590Z,3.80
2024-01-17T18:33:06.100Z,3.80
2024-01-17T18:35:34.643Z,3.80
2024-01-17T18:38:02.630Z,3.80
2024-01-17T18:40:30.374Z,3.80
2024-01-17T18:42:57.461Z,3.80
2024-01-17T18:45:24.778Z,3.80
2024-01-17T18:47:52.765Z,3.80
2024-01-17T18:50:19.978Z,3.80
2024-01-17T18:52:46.982Z,3.80
2024-01-17T18:55:14.186Z,3.90
2024-01-17T18:57:41.847Z,3.90
2024-01-17T19:00:09.421Z,3.90
2024-01-17T19:02:36.504Z,3.80
2024-01-17T19:05:04.655Z,3.90
2024-01-17T19:07:32.383Z,3.90
2024-01-17T19:09:59.418Z,3.90
2024-01-17T19:12:26.541Z,3.90
2024-01-17T19:14:54.501Z,3.90
2024-01-17T19:17:28.644Z,3.90
2024-01-17T19:20:00.679Z,3.90
2024-01-17T19:22:28.032Z,3.90
2024-01-17T19:24:55.561Z,3.90
2024-01-17T19:27:23.138Z,3.90
2024-01-17T19:29:50.522Z,3.90
2024-01-17T19:32:17.670Z,3.90
2024-01-17T19:34:45.026Z,4.00
2024-01-17T19:37:12.250Z,4.00
2024-01-17T19:39:40.950Z,4.00
2024-01-17T19:42:07.954Z,4.00
2024-01-17T19:44:35.809Z,4.00
2024-01-17T19:47:02.955Z,4.00
2024-01-17T19:49:33.077Z,4.00
2024-01-17T19:52:01.946Z,4.00
2024-01-17T19:54:29.594Z,4.00
2024-01-17T19:56:56.856Z,4.00
2024-01-17T19:59:24.076Z,4.00
2024-01-17T20:01:52.374Z,4.00
2024-01-17T20:04:22.544Z,4.10
2024-01-17T20:06:49.579Z,4.10
2024-01-17T20:09:17.958Z,4.10
2024-01-17T20:11:45.110Z,4.10
2024-01-17T20:14:12.073Z,4.10
2024-01-17T20:16:39.162Z,4.20
2024-01-17T20:19:07.495Z,4.20
2024-01-17T20:21:34.803Z,4.30
2024-01-17T20:24:01.944Z,4.30
2024-01-17T20:26:29.163Z,4.30
2024-01-17T20:28:56.181Z,4.30
2024-01-17T20:31:26.504Z,4.40
2024-01-17T20:33:53.739Z,4.40
2024-01-17T20:36:21.047Z,4.40
2024-01-17T20:38:48.089Z,4.40
2024-01-17T20:41:16.373Z,4.40
2024-01-17T20:43:45.173Z,4.50
2024-01-17T20:46:14.165Z,4.50
2024-01-17T20:48:41.615Z,4.50
2024-01-17T20:51:08.904Z,4.50
2024-01-17T20:53:39.337Z,4.60
2024-01-17T20:56:08.659Z,4.60
2024-01-17T20:58:36.120Z,4.60
2024-01-17T21:01:03.528Z,4.60
2024-01-17T21:03:31.013Z,4.60
2024-01-17T21:05:58.230Z,4.60
2024-01-17T21:08:25.369Z,4.70
2024-01-17T21:10:54.392Z,4.70
2024-01-17T21:13:21.598Z,4.70
2024-01-17T21:15:49.111Z,4.70
2024-01-17T21:18:19.005Z,4.70
2024-01-17T21:20:46.318Z,4.70
2024-01-17T21:23:13.465Z,4.70
2024-01-17T21:25:40.658Z,4.70
2024-01-17T21:28:08.889Z,4.70
2024-01-17T21:30:36.125Z,4.70
2024-01-17T21:33:05.025Z,4.70
2024-01-17T21:35:32.184Z,4.70
2024-01-17T21:37:59.067Z,4.70
2024-01-17T21:40:26.149Z,4.70
2024-01-17T21:42:53.086Z,4.80
2024-01-17T21:45:20.360Z,4.80
2024-01-17T21:47:47.500Z,4.80
2024-01-17T21:50:14.773Z,4.80
2024-01-17T21:52:41.863Z,4.80
2024-01-17T21:55:12.615Z,4.80
2024-01-17T21:57:40.236Z,4.80
2024-01-17T22:00:08.501Z,4.80
2024-01-17T22:02:41.611Z,4.80
2024-01-17T22:05:11.772Z,4.80
2024-01-17T22:07:38.997Z,4.80
2024-01-17T22:10:06.772Z,4.80
2024-01-17T22:12:33.926Z,4.80
2024-01-17T22:15:01.369Z,4.80
2024-01-17T22:17:28.513Z,4.80
2024-01-17T22:19:55.833Z,4.80
2024-01-17T22:22:22.839Z,4.80
2024-01-17T22:24:51.584Z,4.70
2024-01-17T22:27:19.947Z,4.70
2024-01-17T22:29:47.187Z,4.70
2024-01-17T22:32:16.932Z,4.80
2024-01-17T22:34:44.364Z,4.70
2024-01-17T22:37:11.427Z,4.70
2024-01-17T22:39:38.707Z,4.70
2024-01-17T22:42:08.403Z,4.70
2024-01-17T22:44:35.957Z,4.70
2024-01-17T22:47:03.025Z,4.70
2024-01-17T22:49:30.139Z,4.70
2024-01-17T22:51:57.096Z,4.70
2024-01-17T22:54:24.767Z,4.70
2024-01-17T22:56:54.981Z,4.60
2024-01-17T22:59:22.417Z,4.60
2024-01-17T23:01:49.333Z,4.60
2024-01-17T23:04:16.634Z,4.60
2024-01-17T23:06:43.907Z,4.60
2024-01-17T23:09:11.041Z,4.60
2024-01-17T23:11:39.370Z,4.60
2024-01-17T23:14:06.460Z,4.60
2024-01-17T23:16:33.508Z,4.60
2024-01-17T23:19:00.823Z,4.60
2024-01-17T23:21:28.116Z,4.60
2024-01-17T23:23:55.193Z,4.60
2024-01-17T23:26:22.349Z,4.60
2024-01-17T23:28:49.628Z,4.60
2024-01-17T23:31:16.879Z,4.60
2024-01-17T23:33:44.218Z,4.60
2024-01-17T23:36:12.550Z,4.60
2024-01-17T23:38:43.201Z,4.60
2024-01-17T23:41:10.232Z,4.50
2024-01-17T23:43:37.245Z,4.50
2024-01-17T23:46:04.284Z,4.60
2024-01-17T23:48:31.362Z,4.50
2024-01-17T23:50:58.553Z,4.60
2024-01-17T23:53:25.636Z,4.60
2024-01-17T23:55:54.067Z,4.50
2024-01-17T23:58:21.884Z,4.50
